Time;durP1;ratioP1;P1;durP2;ratioP2;P2;SDS_P1;SDS_P2;PMS_P1;PMS_P2;Temp;Humidity;BMP_temperature;BMP_pressure;BME280_temperature;BME280_humidity;BME280_pressure;Samples;Min_cycle;Max_cycle;Signal;HPM_P1;HPM_P2
2021/05/18 00:01:07;;;;;;;11.32;8.77;;;;;;;15.07;100.00;96073.13;4928035;29;20585;-66
2021/05/18 00:03:32;;;;;;;12.25;7.45;;;;;;;15.29;100.00;96102.25;4928576;29;20039;-66
2021/05/18 00:06:00;;;;;;;10.95;7.93;;;;;;;15.27;100.00;96115.84;4926352;29;20485;-65
2021/05/18 00:08:27;;;;;;;10.57;8.18;;;;;;;15.29;100.00;96091.09;4926925;29;20047;-66
2021/05/18 00:13:46;;;;;;;9.35;7.22;;;;;;;15.12;100.00;96092.19;4928525;29;20422;-66
2021/05/18 00:16:13;;;;;;;11.45;7.53;;;;;;;15.06;100.00;96086.28;4927987;29;20036;-67
2021/05/18 00:18:39;;;;;;;10.60;7.05;;;;;;;15.03;100.00;96083.56;4926538;29;20514;-65
2021/05/18 00:21:05;;;;;;;8.82;6.88;;;;;;;14.67;100.00;96043.47;4925861;29;20047;-66
2021/05/18 00:23:32;;;;;;;7.93;7.18;;;;;;;14.97;100.00;96107.53;4926402;29;20553;-66
2021/05/18 00:25:57;;;;;;;10.05;6.70;;;;;;;15.05;100.00;96104.22;4926184;29;20042;-65
2021/05/18 00:28:23;;;;;;;9.48;6.50;;;;;;;14.98;100.00;96097.97;4928384;29;20040;-65
2021/05/18 00:30:49;;;;;;;7.68;6.30;;;;;;;14.98;100.00;96098.75;4927429;29;20046;-65
2021/05/18 00:33:17;;;;;;;8.43;6.35;;;;;;;15.00;100.00;96104.72;4926636;29;20134;-65
2021/05/18 00:35:43;;;;;;;10.50;7.50;;;;;;;14.51;100.00;96048.91;4926251;29;20092;-65
2021/05/18 00:38:10;;;;;;;9.63;8.02;;;;;;;14.69;100.00;96083.66;4928324;29;20038;-66
2021/05/18 00:40:36;;;;;;;12.98;9.45;;;;;;;14.87;100.00;96130.81;4927291;29;20043;-65
2021/05/18 00:43:02;;;;;;;13.15;8.95;;;;;;;14.84;100.00;96143.59;4926238;29;20050;-64
2021/05/18 00:45:33;;;;;;;11.80;8.30;;;;;;;14.65;100.00;96130.31;4927490;29;20035;-64
2021/05/18 00:48:01;;;;;;;11.82;9.32;;;;;;;14.60;100.00;96143.94;4928229;29;20051;-64
2021/05/18 00:50:27;;;;;;;11.65;9.25;;;;;;;14.57;100.00;96139.19;4927282;29;20058;-65
2021/05/18 00:52:53;;;;;;;11.43;9.30;;;;;;;14.60;100.00;96135.56;4928024;29;20071;-64
2021/05/18 01:00:39;;;;;;;18.13;13.57;;;;;;;14.78;100.00;96127.75;4927282;29;20071;-65
2021/05/18 01:03:05;;;;;;;13.95;11.02;;;;;;;14.82;100.00;96134.06;4927326;29;20664;-65
2021/05/18 01:08:15;;;;;;;13.63;10.95;;;;;;;14.66;100.00;96097.66;4927564;29;20593;-66
2021/05/18 01:10:41;;;;;;;14.32;10.60;;;;;;;15.00;100.00;96148.56;4926766;29;20064;-66
2021/05/18 01:13:07;;;;;;;11.60;10.40;;;;;;;14.10;100.00;96037.09;4925045;29;20062;-66
2021/05/18 01:15:32;;;;;;;18.00;12.23;;;;;;;14.44;100.00;96113.09;4926736;29;20032;-64
2021/05/18 01:17:58;;;;;;;27.80;17.95;;;;;;;14.72;100.00;96118.28;4927670;29;20126;-66
2021/05/18 01:20:24;;;;;;;19.58;12.55;;;;;;;14.80;100.00;96130.91;4926577;29;20043;-65
2021/05/18 01:22:50;;;;;;;13.32;11.00;;;;;;;14.75;100.00;96145.31;4926651;29;20055;-66
2021/05/18 01:25:17;;;;;;;16.17;11.80;;;;;;;14.74;100.00;96154.88;4925135;29;20051;-66
2021/05/18 01:27:43;;;;;;;16.67;12.75;;;;;;;13.95;100.00;96035.69;4927127;29;20047;-66
2021/05/18 01:30:10;;;;;;;14.48;11.52;;;;;;;14.68;100.00;96151.00;4924841;29;20034;-65
2021/05/18 01:32:36;;;;;;;13.90;10.75;;;;;;;14.71;100.00;96141.78;4925284;29;20047;-66
2021/05/18 01:35:04;;;;;;;14.20;9.50;;;;;;;14.56;100.00;96132.03;4927075;29;20071;-65
2021/05/18 01:37:30;;;;;;;10.25;9.10;;;;;;;13.96;100.00;96087.41;4926435;29;20184;-65
2021/05/18 01:42:49;;;;;;;10.90;9.35;;;;;;;14.17;100.00;96131.69;4926792;29;20044;-64
2021/05/18 01:45:21;;;;;;;10.18;9.18;;;;;;;13.98;100.00;96118.38;4926930;29;20063;-65
2021/05/18 01:47:50;;;;;;;10.82;8.90;;;;;;;14.48;100.00;96169.56;4924723;29;20044;-64
2021/05/18 01:50:17;;;;;;;9.98;8.75;;;;;;;14.49;100.00;96166.38;4926412;29;20040;-64
2021/05/18 01:52:43;;;;;;;8.90;7.75;;;;;;;14.34;100.00;96153.81;4927085;29;20197;-65
2021/05/18 01:55:12;;;;;;;8.68;7.57;;;;;;;13.94;100.00;96095.38;4924996;29;20039;-65
2021/05/18 01:57:37;;;;;;;9.07;7.63;;;;;;;14.33;100.00;96140.28;4925026;29;20048;-65
2021/05/18 02:00:06;;;;;;;7.65;6.93;;;;;;;14.44;100.00;96149.31;4925070;29;20438;-65
2021/05/18 02:02:32;;;;;;;9.70;7.78;;;;;;;14.32;100.00;96127.59;4940916;29;20047;-65
2021/05/18 02:05:03;;;;;;;11.63;8.00;;;;;;;14.18;100.00;96127.72;4941322;29;20039;-66
2021/05/18 02:07:32;;;;;;;17.20;7.82;;;;;;;14.18;100.00;96138.88;4924618;29;20036;-65
2021/05/18 02:09:58;;;;;;;11.90;7.80;;;;;;;14.25;100.00;96130.44;4926784;29;20040;-66
2021/05/18 02:12:24;;;;;;;7.47;6.57;;;;;;;13.82;100.00;96049.38;4926393;29;20040;-67
2021/05/18 02:14:57;;;;;;;10.60;6.80;;;;;;;14.14;100.00;96138.09;4924753;29;20036;-65
2021/05/18 02:17:33;;;;;;;7.03;6.28;;;;;;;14.14;100.00;96143.66;4926090;29;20094;-66
2021/05/18 02:25:18;;;;;;;7.15;5.55;;;;;;;14.24;100.00;96170.63;4927614;29;20048;-64
2021/05/18 02:27:44;;;;;;;9.95;5.97;;;;;;;13.93;100.00;96182.88;4928459;29;20490;-64
2021/05/18 02:30:11;;;;;;;8.02;6.82;;;;;;;13.63;100.00;96187.13;4929994;29;20036;-65
2021/05/18 02:32:37;;;;;;;15.93;12.20;;;;;;;13.73;100.00;96191.03;4930104;29;20048;-65
2021/05/18 02:35:11;;;;;;;19.25;11.27;;;;;;;13.66;100.00;96197.44;4928383;29;20426;-64
2021/05/18 02:37:38;;;;;;;10.70;8.02;;;;;;;13.40;100.00;96222.31;4930094;29;20071;-65
2021/05/18 02:40:10;;;;;;;10.23;8.65;;;;;;;13.18;100.00;96181.94;4928142;29;20511;-66
2021/05/18 02:42:35;;;;;;;10.30;7.93;;;;;;;13.69;100.00;96224.44;4929947;29;20048;-67
2021/05/18 02:45:09;;;;;;;9.50;8.35;;;;;;;13.66;100.00;96214.13;4929716;29;20046;-65
2021/05/18 02:50:19;;;;;;;10.02;7.88;;;;;;;13.47;100.00;96183.28;4929958;29;20042;-67
2021/05/18 02:52:45;;;;;;;13.45;7.85;;;;;;;13.36;100.00;96143.63;4929373;29;20036;-69
2021/05/18 02:57:57;;;;;;;11.50;9.60;;;;;;;13.32;100.00;96165.94;4932545;29;20059;-66
2021/05/18 03:00:24;;;;;;;15.80;10.95;;;;;;;14.07;100.00;96236.44;4929320;29;20032;-66
2021/05/18 03:02:51;;;;;;;13.95;8.52;;;;;;;13.61;100.00;96172.84;4930028;29;20043;-65
2021/05/18 03:05:18;;;;;;;12.85;8.30;;;;;;;14.08;100.00;96223.31;4929599;29;20538;-66
2021/05/18 03:07:43;;;;;;;13.00;8.13;;;;;;;14.09;100.00;96225.69;4927837;29;20578;-66
2021/05/18 03:10:11;;;;;;;16.17;8.77;;;;;;;13.65;100.00;96162.47;4927888;29;20266;-65
2021/05/18 03:12:36;;;;;;;10.43;8.35;;;;;;;13.38;100.00;96119.00;4929829;29;20028;-64
2021/05/18 03:15:04;;;;;;;10.93;7.22;;;;;;;12.36;100.00;96025.22;4929285;29;20479;-65
2021/05/18 03:17:31;;;;;;;12.35;7.35;;;;;;;14.13;100.00;96242.34;4929219;29;20043;-65
2021/05/18 03:19:56;;;;;;;10.40;7.57;;;;;;;13.95;100.00;96248.09;4927699;29;20432;-65
2021/05/18 03:22:22;;;;;;;7.90;6.90;;;;;;;13.53;100.00;96171.31;4928519;29;20039;-65
2021/05/18 03:24:48;;;;;;;10.35;6.18;;;;;;;14.00;100.00;96224.56;4929436;29;20082;-66
2021/05/18 03:27:13;;;;;;;7.63;6.80;;;;;;;14.09;100.00;96220.09;4928266;29;20032;-64
2021/05/18 03:29:39;;;;;;;7.95;7.15;;;;;;;14.09;100.00;96219.31;4929237;29;20087;-64
2021/05/18 03:34:50;;;;;;;7.20;6.18;;;;;;;12.83;100.00;96085.66;4928753;29;20099;-65
2021/05/18 03:37:42;;;;;;;8.98;6.35;;;;;;;13.40;100.00;96134.06;4927789;29;20046;-63
2021/05/18 03:40:11;;;;;;;8.98;6.30;;;;;;;13.78;100.00;96198.13;4928689;29;20054;-66
2021/05/18 03:42:40;;;;;;;6.68;5.95;;;;;;;13.91;100.00;96207.56;4928753;29;20046;-65
2021/05/18 03:45:25;;;;;;;8.48;5.70;;;;;;;13.93;100.00;96216.28;4928510;29;20040;-64
2021/05/18 04:02:40;;;;;;;6.85;6.15;;;;;;;13.94;100.00;96221.44;4928348;29;20046;-66
2021/05/18 04:04:45;;;;;;;9.15;6.60;;;;;;;13.69;100.00;96199.41;4934813;28;20055;-66
2021/05/18 04:20:35;;;;;;;8.68;7.78;;;;;;;14.87;100.00;96259.06;4927841;29;20420;-66
2021/05/18 04:23:28;;;;;;;9.02;6.90;;;;;;;14.46;100.00;96186.69;4927903;29;20488;-65
2021/05/18 05:00:25;;;;;;;6.45;4.55;;;;;;;15.87;100.00;96244.09;4945874;29;20038;-65
2021/05/18 05:15:37;;;;;;;4.15;3.75;;;;;;;16.58;89.39;96177.31;4926978;29;20511;-70
2021/05/18 05:18:03;;;;;;;5.25;4.13;;;;;;;17.52;88.32;96252.09;4930510;29;20063;-67
2021/05/18 05:20:29;;;;;;;5.20;3.75;;;;;;;17.79;87.33;96254.66;4926113;29;20430;-61
2021/05/18 05:22:55;;;;;;;6.35;3.35;;;;;;;17.69;79.96;96188.44;4926479;29;20040;-60
2021/05/18 05:25:21;;;;;;;5.95;2.83;;;;;;;17.69;75.95;96185.66;4926445;29;20036;-62
2021/05/18 05:27:46;;;;;;;4.90;2.92;;;;;;;18.29;73.15;96254.22;4926354;29;20584;-60
2021/05/18 05:30:12;;;;;;;7.28;3.58;;;;;;;16.03;74.34;95928.56;4926169;29;20123;-61
2021/05/18 05:32:38;;;;;;;3.25;3.03;;;;;;;17.03;72.38;96140.41;4927170;29;20047;-60
2021/05/18 05:35:04;;;;;;;5.47;3.08;;;;;;;17.63;73.72;96277.03;4926597;29;20495;-60
2021/05/18 05:37:30;;;;;;;7.22;2.97;;;;;;;17.37;74.99;96238.81;4925964;29;20441;-64
2021/05/18 05:39:55;;;;;;;5.10;2.60;;;;;;;17.39;74.12;96281.94;4942557;29;20060;-60
2021/05/18 05:42:21;;;;;;;4.65;3.10;;;;;;;17.13;75.04;96234.53;4943639;29;20047;-65
2021/05/18 05:44:47;;;;;;;3.38;2.78;;;;;;;17.33;74.19;96288.47;4945492;28;20039;-69
2021/05/18 05:47:13;;;;;;;9.80;3.15;;;;;;;17.40;74.21;96293.94;4933530;29;20408;-62
2021/05/18 05:49:39;;;;;;;3.63;2.88;;;;;;;16.86;74.99;96186.34;4907950;29;20488;-62
2021/05/18 05:52:05;;;;;;;4.75;2.85;;;;;;;17.52;74.56;96284.88;4930297;29;20182;-62
2021/05/18 05:54:33;;;;;;;4.47;3.30;;;;;;;17.47;73.83;96283.38;4944261;28;20130;-61
2021/05/18 05:56:59;;;;;;;6.68;2.83;;;;;;;14.56;73.12;95820.69;4944766;28;20537;-62
2021/05/18 05:59:25;;;;;;;3.03;2.83;;;;;;;17.36;73.94;96254.00;4943624;29;20062;-64
2021/05/18 06:01:51;;;;;;;4.10;3.10;;;;;;;17.62;72.71;96278.28;4921962;28;20123;-59
2021/05/18 06:04:17;;;;;;;5.57;3.63;;;;;;;17.93;71.71;96293.53;4907519;29;20125;-59
2021/05/18 06:06:42;;;;;;;3.78;3.13;;;;;;;18.08;70.04;96300.41;4914281;29;20043;-60
2021/05/18 06:09:09;;;;;;;3.90;3.50;;;;;;;18.03;69.19;96298.13;4924467;29;20122;-58
2021/05/18 06:12:21;;;;;;;4.50;3.63;;;;;;;18.16;66.82;96304.59;4925839;29;20039;-58
2021/05/18 06:43:34;;;;;;;3.47;3.10;;;;;;;18.56;62.05;96297.59;4926395;29;20187;-66
2021/05/18 06:48:38;;;;;;;4.80;3.13;;;;;;;18.78;61.91;96295.78;4906817;29;20479;-66
2021/05/18 06:51:03;;;;;;;5.72;3.25;;;;;;;18.69;61.80;96295.66;4905232;29;20032;-57
2021/05/18 06:53:29;;;;;;;3.70;3.15;;;;;;;18.70;62.27;96308.44;4916774;29;20031;-61
2021/05/18 06:55:57;;;;;;;4.20;3.08;;;;;;;18.04;61.37;96204.38;4928692;29;20098;-62
2021/05/18 07:01:21;;;;;;;3.22;2.92;;;;;;;18.73;61.54;96304.75;4918047;29;20046;-62
2021/05/18 07:03:50;;;;;;;5.35;3.00;;;;;;;18.55;60.67;96228.69;4935347;29;20036;-63
2021/05/18 07:11:07;;;;;;;3.50;3.22;;;;;;;19.50;60.72;96294.19;4929950;28;20479;-58
2021/05/18 07:13:32;;;;;;;3.92;3.53;;;;;;;19.51;59.13;96292.94;4935440;29;20047;-60
2021/05/18 07:15:57;;;;;;;6.18;3.63;;;;;;;18.90;58.23;96213.69;4927187;29;20036;-61
2021/05/18 07:18:23;;;;;;;6.03;3.53;;;;;;;19.14;56.69;96231.81;4929249;29;20044;-59
2021/05/18 07:20:48;;;;;;;8.50;4.13;;;;;;;19.11;58.25;96199.00;4940162;29;20035;-60
2021/05/18 07:23:17;;;;;;;6.03;3.55;;;;;;;19.77;57.17;96239.56;4946279;29;20471;-62
2021/05/18 07:25:42;;;;;;;4.28;3.30;;;;;;;20.07;55.27;96286.78;4934701;28;20055;-59
2021/05/18 07:28:08;;;;;;;4.25;3.50;;;;;;;20.10;55.19;96291.50;4926748;29;20206;-58
2021/05/18 07:30:35;;;;;;;3.58;3.38;;;;;;;19.64;54.27;96228.31;4929947;29;20038;-62
2021/05/18 07:33:01;;;;;;;4.43;3.25;;;;;;;20.39;52.07;96292.19;4928501;29;20234;-60
2021/05/18 07:35:26;;;;;;;4.03;3.72;;;;;;;19.98;51.33;96208.72;4928070;29;20151;-65
2021/05/18 07:37:52;;;;;;;3.40;3.15;;;;;;;20.21;50.30;96269.47;4928755;29;20524;-58
2021/05/18 07:40:17;;;;;;;7.32;3.22;;;;;;;19.99;48.93;96297.47;4932027;29;20743;-62
2021/05/18 07:42:43;;;;;;;3.40;3.10;;;;;;;19.94;49.95;96302.84;4942669;29;20086;-58
2021/05/18 07:45:09;;;;;;;3.50;3.20;;;;;;;19.94;50.27;96300.84;4939891;28;20107;-56
2021/05/18 07:47:37;;;;;;;3.17;2.97;;;;;;;19.08;51.58;96211.13;4928399;29;20463;-58
2021/05/18 07:50:07;;;;;;;3.95;3.60;;;;;;;19.65;52.29;96304.97;4947537;29;20047;-57
2021/05/18 08:06:23;;;;;;;3.92;2.42;;;;;;;19.17;48.40;96337.59;4927642;29;20094;-60
2021/05/18 08:08:48;;;;;;;3.03;2.72;;;;;;;19.20;48.25;96342.38;4928458;29;20480;-60
2021/05/18 08:11:14;;;;;;;2.83;2.63;;;;;;;19.16;47.29;96341.66;4927354;29;20376;-62
2021/05/18 08:13:40;;;;;;;4.55;2.63;;;;;;;19.39;47.05;96338.59;4928252;29;20318;-61
2021/05/18 10:36:04;;;;;;;5.28;3.00;;;;;;;23.15;34.67;96336.31;4943107;28;20134;-60
2021/05/18 10:38:34;;;;;;;5.63;2.95;;;;;;;23.23;32.62;96353.75;4945296;29;20118;-63
2021/05/18 10:41:06;;;;;;;2.95;2.75;;;;;;;23.43;31.90;96339.94;4944272;28;20212;-66
2021/05/18 10:43:33;;;;;;;3.00;2.80;;;;;;;22.61;31.94;96211.19;4934060;28;20036;-70
2021/05/18 10:46:07;;;;;;;8.27;6.32;;;;;;;23.29;31.33;96312.31;4935138;28;20130;-62
2021/05/18 10:48:35;;;;;;;2.88;2.78;;;;;;;23.63;34.63;96326.13;4937063;28;20039;-62
2021/05/18 10:51:33;;;;;;;3.17;2.97;;;;;;;24.03;33.09;96326.66;4929205;29;20138;-61
2021/05/18 10:54:33;;;;;;;4.93;3.30;;;;;;;24.42;30.98;96336.13;4932655;29;20035;-60
2021/05/18 10:57:05;;;;;;;3.38;3.28;;;;;;;23.77;31.26;96263.25;4929242;29;20071;-60
2021/05/18 10:59:39;;;;;;;3.60;3.30;;;;;;;23.85;32.96;96315.41;4942821;29;20043;-60
2021/05/18 11:02:11;;;;;;;3.70;3.38;;;;;;;23.67;31.71;96275.81;4946183;29;20085;-60
2021/05/18 11:04:59;;;;;;;3.50;3.22;;;;;;;24.24;31.32;96320.00;4946869;28;20040;-59
2021/05/18 11:07:35;;;;;;;5.10;3.83;;;;;;;23.93;31.04;96260.81;4934959;28;20082;-58
2021/05/18 11:10:15;;;;;;;3.22;3.13;;;;;;;24.14;32.75;96301.47;4929737;29;20072;-60
2021/05/18 11:12:42;;;;;;;3.90;3.55;;;;;;;24.08;32.95;96334.53;4929145;29;20547;-61
2021/05/18 11:15:08;;;;;;;3.42;3.13;;;;;;;24.00;32.37;96333.28;4929041;29;20035;-59
2021/05/18 11:17:35;;;;;;;3.38;3.00;;;;;;;23.39;31.39;96322.38;4940192;29;20458;-59
2021/05/18 11:20:09;;;;;;;3.10;2.80;;;;;;;23.16;32.23;96320.91;4944402;29;20036;-57
2021/05/18 11:25:31;;;;;;;2.92;2.72;;;;;;;22.56;33.31;96307.81;4909279;29;20610;-59
2021/05/18 11:28:17;;;;;;;2.83;2.63;;;;;;;22.82;34.28;96317.59;4934965;29;20031;-61
2021/05/18 11:30:45;;;;;;;2.55;2.38;;;;;;;22.00;32.40;96207.28;4945657;29;20106;-61
2021/05/18 11:33:11;;;;;;;3.33;3.00;;;;;;;21.76;33.52;96217.56;4948124;29;20034;-60
2021/05/18 11:35:37;;;;;;;6.10;2.90;;;;;;;22.00;35.41;96274.19;4947728;28;20035;-60
2021/05/18 11:38:16;;;;;;;2.75;2.65;;;;;;;22.18;35.10;96320.19;4937504;28;20036;-58
2021/05/18 11:40:50;;;;;;;2.67;2.50;;;;;;;22.27;35.52;96306.13;4927980;29;20059;-59
2021/05/18 11:43:39;;;;;;;3.72;2.75;;;;;;;22.22;36.71;96300.31;4929248;29;20066;-60
2021/05/18 11:46:12;;;;;;;3.10;2.90;;;;;;;22.36;35.32;96311.81;4909302;29;20068;-59
2021/05/18 11:48:41;;;;;;;3.03;2.92;;;;;;;22.53;35.45;96311.56;4909225;29;20103;-59
2021/05/18 11:51:12;;;;;;;3.00;2.90;;;;;;;22.52;35.87;96315.63;4924274;29;20058;-59
2021/05/18 11:53:42;;;;;;;2.83;2.72;;;;;;;22.72;35.30;96308.31;4927603;29;20048;-57
2021/05/18 11:56:31;;;;;;;3.03;2.92;;;;;;;22.81;34.24;96304.72;4928601;29;20036;-58
2021/05/18 11:59:02;;;;;;;2.72;2.60;;;;;;;23.30;32.75;96313.91;4927708;29;20059;-59
2021/05/18 12:01:29;;;;;;;3.25;3.05;;;;;;;23.42;32.26;96316.56;4927626;29;20119;-59
2021/05/18 12:04:11;;;;;;;3.63;3.42;;;;;;;23.24;31.91;96321.38;4926302;29;20067;-59
2021/05/18 12:06:42;;;;;;;3.22;3.05;;;;;;;22.54;31.97;96341.38;4928414;29;20079;-59
2021/05/18 12:09:10;;;;;;;2.95;2.67;;;;;;;22.07;33.97;96398.81;4930427;29;20043;-62
2021/05/18 12:11:36;;;;;;;10.27;3.00;;;;;;;20.46;40.53;96404.47;4936191;28;20032;-63
2021/05/18 12:14:07;;;;;;;4.88;2.38;;;;;;;18.58;52.19;96426.19;4925548;29;20598;-61
2021/05/18 12:16:40;;;;;;;5.78;2.10;;;;;;;15.92;59.36;96474.66;4938234;29;20032;-59
2021/05/18 12:19:09;;;;;;;1.20;1.20;;;;;;;14.33;70.43;96480.19;4909002;29;20543;-60
2021/05/18 12:21:35;;;;;;;1.00;1.00;;;;;;;12.75;77.19;96400.09;4932875;29;20052;-59
2021/05/18 12:24:29;;;;;;;1.10;1.10;;;;;;;13.30;74.17;96468.72;4946464;28;20059;-59
2021/05/18 12:27:09;;;;;;;0.90;0.90;;;;;;;13.34;73.91;96452.81;4926219;29;20047;-60
2021/05/18 12:29:41;;;;;;;0.98;0.98;;;;;;;13.57;76.41;96427.28;4926016;29;20077;-63
2021/05/18 12:32:18;;;;;;;1.10;1.10;;;;;;;14.52;79.58;96460.16;4927192;29;20087;-60
2021/05/18 12:34:50;;;;;;;1.10;1.10;;;;;;;16.14;71.13;96459.19;4927549;29;20043;-62
2021/05/18 12:37:16;;;;;;;1.25;1.25;;;;;;;18.14;65.71;96455.63;4927162;29;20043;-60
2021/05/18 12:39:44;;;;;;;2.03;1.80;;;;;;;19.18;57.76;96445.09;4927842;29;20035;-62
2021/05/18 12:42:16;;;;;;;1.48;1.48;;;;;;;19.61;57.27;96411.06;4926918;29;20043;-63
2021/05/18 12:44:54;;;;;;;1.50;1.50;;;;;;;20.91;53.32;96422.66;4938060;29;20047;-60
2021/05/18 12:47:39;;;;;;;1.63;1.63;;;;;;;21.98;49.86;96432.63;4944517;29;20070;-61
2021/05/18 12:50:06;;;;;;;1.77;1.77;;;;;;;20.41;49.02;96120.88;4935668;28;20082;-62
2021/05/18 12:52:41;;;;;;;2.10;2.10;;;;;;;23.24;43.52;96321.38;4936293;28;20090;-61
2021/05/18 12:55:28;;;;;;;2.63;2.53;;;;;;;25.13;47.60;96397.31;4945814;28;20097;-61
2021/05/18 12:57:59;;;;;;;2.83;2.72;;;;;;;25.43;40.82;96405.97;4927339;28;20114;-60
2021/05/18 13:00:38;;;;;;;2.88;2.78;;;;;;;25.57;41.23;96442.91;4937153;29;20050;-61
2021/05/18 13:03:10;;;;;;;2.65;2.55;;;;;;;23.41;42.30;96393.38;4931713;29;20058;-62
2021/05/18 13:05:36;;;;;;;2.90;2.80;;;;;;;24.33;38.66;96348.28;4907536;29;20036;-60
2021/05/18 13:08:16;;;;;;;2.90;2.80;;;;;;;24.89;39.69;96388.03;4932130;29;20043;-64
2021/05/18 13:13:43;;;;;;;3.00;2.90;;;;;;;23.56;42.06;96262.19;4936406;28;20405;-59
2021/05/18 13:16:19;;;;;;;3.17;3.08;;;;;;;23.59;41.45;96387.69;4926159;29;20171;-63
2021/05/18 13:19:01;;;;;;;2.53;2.42;;;;;;;22.80;43.74;96383.00;4926265;29;20047;-68
2021/05/18 13:21:34;;;;;;;2.65;2.58;;;;;;;21.13;39.43;96255.81;4944201;29;20050;-64
2021/05/18 13:26:27;;;;;;;2.25;2.25;;;;;;;21.55;46.97;96383.84;4918489;29;20047;-61
2021/05/18 13:29:04;;;;;;;2.50;2.40;;;;;;;21.53;43.27;96367.41;4936851;29;20062;-61
2021/05/18 13:31:31;;;;;;;2.10;2.10;;;;;;;21.35;41.49;96375.72;4929045;29;20038;-62
2021/05/18 13:33:58;;;;;;;1.95;1.95;;;;;;;21.26;40.15;96384.06;4945857;28;20043;-62
2021/05/18 13:36:31;;;;;;;2.20;2.20;;;;;;;21.19;40.37;96377.91;4944016;29;20037;-62
2021/05/18 13:38:56;;;;;;;;;;;;;;;21.07;39.10;96375.94;4944799;29;20131;-63
2021/05/18 13:41:22;;;;;;;1.80;1.80;;;;;;;21.05;40.41;96376.41;4945165;29;19925;-61
2021/05/18 13:43:48;;;;;;;1.92;1.92;;;;;;;21.25;40.05;96378.91;4943914;29;20066;-61
2021/05/18 13:46:13;;;;;;;2.10;2.10;;;;;;;21.03;37.29;96336.63;4945462;28;20031;-61
2021/05/18 13:48:39;;;;;;;4.88;2.72;;;;;;;21.31;37.24;96375.03;4945447;28;20046;-61
2021/05/18 13:51:05;;;;;;;1.85;1.85;;;;;;;21.32;37.93;96356.91;4943716;29;20414;-63
2021/05/18 13:53:30;;;;;;;2.05;2.05;;;;;;;21.31;38.00;96352.50;4944132;29;20460;-62
2021/05/18 13:55:55;;;;;;;2.50;2.40;;;;;;;21.70;37.40;96357.53;4943606;29;20042;-64
2021/05/18 13:58:21;;;;;;;2.88;2.67;;;;;;;21.68;38.36;96365.66;4945106;28;20055;-64
2021/05/18 14:00:46;;;;;;;2.25;2.25;;;;;;;21.82;37.55;96370.78;4944640;28;20047;-61
2021/05/18 14:03:12;;;;;;;2.33;2.28;;;;;;;21.06;37.39;96273.75;4945905;28;20042;-61
2021/05/18 14:05:37;;;;;;;3.03;2.92;;;;;;;21.42;39.03;96381.09;4944656;28;20043;-62
2021/05/18 14:08:28;;;;;;;2.10;2.10;;;;;;;20.83;38.32;96338.91;4945475;28;20042;-61
2021/05/18 14:10:55;;;;;;;2.10;2.10;;;;;;;20.74;39.49;96387.47;4945100;28;20048;-62
2021/05/18 14:13:23;;;;;;;2.15;2.13;;;;;;;20.65;39.37;96395.00;4945460;28;20090;-61
2021/05/18 14:15:48;;;;;;;2.35;2.28;;;;;;;19.42;41.36;96284.38;4940598;29;20031;-61
2021/05/18 14:18:15;;;;;;;2.00;2.00;;;;;;;19.99;42.66;96448.50;4926222;29;20074;-62
2021/05/18 14:20:42;;;;;;;1.90;1.90;;;;;;;19.36;44.26;96446.25;4926681;29;20039;-61
2021/05/18 14:23:08;;;;;;;1.55;1.55;;;;;;;18.56;49.01;96443.47;4930041;29;20070;-63
2021/05/18 14:25:34;;;;;;;1.45;1.45;;;;;;;17.20;53.34;96430.31;4930547;29;20027;-61
2021/05/18 14:28:00;;;;;;;1.50;1.50;;;;;;;16.64;63.27;96466.44;4930075;29;20032;-61
2021/05/18 14:30:26;;;;;;;1.40;1.40;;;;;;;16.74;67.63;96458.31;4929449;29;20036;-60
2021/05/18 14:32:52;;;;;;;1.60;1.60;;;;;;;17.26;61.21;96401.38;4928041;29;20424;-60
2021/05/18 14:35:18;;;;;;;2.00;1.85;;;;;;;18.02;62.00;96419.84;4929449;29;20043;-62
2021/05/18 14:37:48;;;;;;;1.58;1.58;;;;;;;19.59;58.10;96391.84;4929865;29;20838;-61
2021/05/18 14:43:05;;;;;;;2.00;2.00;;;;;;;23.07;43.58;96430.31;4929710;29;20613;-62
2021/05/18 14:45:37;;;;;;;2.10;2.10;;;;;;;23.90;40.67;96414.53;4929187;29;20107;-64
2021/05/18 14:56:03;;;;;;;3.38;3.22;;;;;;;25.32;39.22;96432.78;4928851;29;20550;-62
2021/05/18 14:58:29;;;;;;;3.58;3.47;;;;;;;25.66;32.66;96433.53;4929691;29;20031;-61
2021/05/18 15:00:54;;;;;;;3.67;3.58;;;;;;;25.13;34.91;96379.53;4929352;29;20036;-63
2021/05/18 15:03:20;;;;;;;3.63;3.47;;;;;;;25.17;33.50;96423.44;4927438;29;20027;-60
2021/05/18 15:05:45;;;;;;;3.83;3.63;;;;;;;25.43;33.47;96432.31;4927357;29;20574;-60
2021/05/18 15:08:11;;;;;;;3.58;3.40;;;;;;;25.29;33.54;96421.66;4927858;29;20042;-62
2021/05/18 15:10:36;;;;;;;3.38;3.17;;;;;;;25.35;33.32;96435.97;4929053;29;20040;-60
2021/05/18 15:13:03;;;;;;;3.20;2.97;;;;;;;25.12;31.17;96432.59;4926858;29;20133;-61
2021/05/18 15:15:29;;;;;;;2.85;2.75;;;;;;;23.86;32.15;96288.66;4927052;29;20040;-61
2021/05/18 15:17:59;;;;;;;3.30;3.20;;;;;;;24.83;32.25;96418.25;4927221;29;20131;-60
2021/05/18 15:20:26;;;;;;;3.20;3.00;;;;;;;24.89;31.76;96398.56;4926982;29;20042;-62
2021/05/18 15:22:52;;;;;;;3.40;3.30;;;;;;;24.60;32.22;96430.31;4926588;29;20063;-63
2021/05/18 15:25:17;;;;;;;3.30;3.20;;;;;;;24.38;32.57;96421.25;4928287;29;20048;-62
2021/05/18 15:27:43;;;;;;;3.63;3.45;;;;;;;24.19;32.60;96442.38;4929057;29;20090;-60
2021/05/18 15:30:10;;;;;;;3.38;2.95;;;;;;;24.16;32.30;96403.69;4928502;29;20499;-60
2021/05/18 15:32:37;;;;;;;5.00;4.60;;;;;;;24.52;32.64;96375.25;4925897;29;20090;-60
2021/05/18 15:35:06;;;;;;;6.25;4.57;;;;;;;25.15;32.29;96417.47;4928685;29;20045;-60
2021/05/18 15:37:32;;;;;;;4.97;3.63;;;;;;;24.86;32.04;96411.66;4928431;29;20111;-61
2021/05/18 15:39:57;;;;;;;3.90;3.60;;;;;;;24.57;31.10;96383.09;4928951;29;20039;-62
2021/05/18 15:42:23;;;;;;;3.15;3.00;;;;;;;24.45;31.78;96418.09;4928661;29;20032;-60
2021/05/18 15:44:48;;;;;;;3.58;3.28;;;;;;;23.18;33.05;96420.16;4927546;29;20044;-61
2021/05/18 15:47:14;;;;;;;5.78;3.40;;;;;;;22.36;34.87;96376.72;4926898;29;20025;-61
2021/05/18 15:49:40;;;;;;;2.53;2.38;;;;;;;21.97;34.69;96416.94;4927235;29;20051;-61
2021/05/18 15:52:06;;;;;;;3.58;2.50;;;;;;;21.16;34.68;96385.25;4927675;29;20490;-61
2021/05/18 15:54:32;;;;;;;2.40;2.30;;;;;;;20.98;36.01;96424.50;4926690;29;20068;-61
2021/05/18 15:56:58;;;;;;;2.40;2.30;;;;;;;20.50;36.30;96362.97;4927431;29;20031;-60
2021/05/18 15:59:24;;;;;;;2.92;2.72;;;;;;;20.93;36.96;96427.84;4928710;29;20070;-61
2021/05/18 16:01:50;;;;;;;3.05;2.42;;;;;;;21.82;34.43;96427.16;4927851;29;20511;-62
2021/05/18 16:04:15;;;;;;;2.22;2.13;;;;;;;22.62;33.13;96447.13;4927311;29;20396;-63
2021/05/18 16:06:42;;;;;;;4.32;2.45;;;;;;;22.97;32.95;96431.56;4926488;29;20119;-60
2021/05/18 16:09:09;;;;;;;2.92;2.83;;;;;;;23.49;31.79;96428.56;4927595;29;20423;-61
2021/05/18 16:11:35;;;;;;;3.85;3.47;;;;;;;24.09;30.64;96426.66;4925250;29;20501;-61
2021/05/18 16:14:01;;;;;;;5.47;4.95;;;;;;;23.60;30.15;96383.63;4925620;29;20035;-63
2021/05/18 16:16:28;;;;;;;2.85;2.72;;;;;;;23.20;29.54;96428.94;4925538;29;20036;-61
2021/05/18 16:18:54;;;;;;;2.92;2.83;;;;;;;23.33;29.45;96426.03;4927523;29;20072;-60
2021/05/18 16:21:21;;;;;;;2.80;2.60;;;;;;;23.00;30.08;96298.63;4926707;29;20042;-61
2021/05/18 16:23:52;;;;;;;3.33;3.10;;;;;;;24.46;29.43;96422.47;4926970;29;20296;-61
2021/05/18 16:26:27;;;;;;;3.38;3.13;;;;;;;24.89;28.85;96427.69;4925046;29;20083;-60
2021/05/18 16:28:53;;;;;;;3.67;3.47;;;;;;;24.82;28.81;96421.56;4927091;29;20063;-59
2021/05/18 16:31:20;;;;;;;3.72;3.40;;;;;;;23.77;29.58;96348.84;4927242;29;20042;-63
2021/05/18 16:33:45;;;;;;;3.58;3.30;;;;;;;23.87;30.37;96420.34;4927864;29;20040;-61
2021/05/18 16:36:13;;;;;;;3.70;3.40;;;;;;;23.25;29.87;96379.50;4927588;29;20427;-62
2021/05/18 16:38:40;;;;;;;3.75;3.45;;;;;;;22.36;32.06;96452.13;4925995;29;20202;-61
2021/05/18 16:41:06;;;;;;;3.72;3.08;;;;;;;21.06;33.92;96408.13;4927581;29;20041;-60
2021/05/18 16:43:33;;;;;;;4.78;2.80;;;;;;;20.83;34.37;96414.94;4927199;29;20090;-63
2021/05/18 16:45:59;;;;;;;3.38;3.05;;;;;;;20.85;34.80;96449.03;4927076;29;20499;-60
2021/05/18 16:48:28;;;;;;;4.60;3.58;;;;;;;19.80;35.54;96357.50;4925821;29;20463;-61
2021/05/18 16:50:55;;;;;;;3.03;2.80;;;;;;;20.53;34.91;96463.34;4927220;29;20467;-60